sensor_id;sensor_type;location;lat;lon;timestamp;temperature;humidity
36800;DHT22;22752;51.960;5.886;2023-12-07T00:00:39;-0.50;99.90
36800;DHT22;22752;51.960;5.886;2023-12-07T00:03:05;-0.50;99.90
36800;DHT22;22752;51.960;5.886;2023-12-07T00:05:33;-0.60;99.90
36800;DHT22;22752;51.960;5.886;2023-12-07T00:07:59;-0.50;99.90
36800;DHT22;22752;51.960;5.886;2023-12-07T00:10:24;-0.50;99.90
36800;DHT22;22752;51.960;5.886;2023-12-07T00:12:50;-0.50;99.90
36800;DHT22;22752;51.960;5.886;2023-12-07T00:15:16;-0.60;99.90
36800;DHT22;22752;51.960;5.886;2023-12-07T00:17:41;-0.70;99.90
36800;DHT22;22752;51.960;5.886;2023-12-07T00:20:08;-0.70;99.90
36800;DHT22;22752;51.960;5.886;2023-12-07T00:22:34;-0.80;99.90
36800;DHT22;22752;51.960;5.886;2023-12-07T00:24:59;-0.70;99.90
36800;DHT22;22752;51.960;5.886;2023-12-07T00:27:25;-0.80;99.90
36800;DHT22;22752;51.960;5.886;2023-12-07T00:29:51;-0.70;99.90
36800;DHT22;22752;51.960;5.886;2023-12-07T00:32:16;-0.70;99.90
36800;DHT22;22752;51.960;5.886;2023-12-07T00:34:43;-0.60;99.90
36800;DHT22;22752;51.960;5.886;2023-12-07T00:37:08;-0.60;99.90
36800;DHT22;22752;51.960;5.886;2023-12-07T00:39:35;-0.60;99.90
36800;DHT22;22752;51.960;5.886;2023-12-07T00:42:01;-0.60;99.90
36800;DHT22;22752;51.960;5.886;2023-12-07T00:44:28;-0.60;99.90
36800;DHT22;22752;51.960;5.886;2023-12-07T00:46:54;-0.70;99.90
36800;DHT22;22752;51.960;5.886;2023-12-07T00:49:19;-0.70;99.90
36800;DHT22;22752;51.960;5.886;2023-12-07T00:51:45;-0.70;99.90
36800;DHT22;22752;51.960;5.886;2023-12-07T00:54:10;-0.70;99.90
36800;DHT22;22752;51.960;5.886;2023-12-07T00:56:36;-0.80;99.90
36800;DHT22;22752;51.960;5.886;2023-12-07T00:59:02;-0.80;99.90
36800;DHT22;22752;51.960;5.886;2023-12-07T01:01:28;-0.80;99.90
36800;DHT22;22752;51.960;5.886;2023-12-07T01:03:54;-0.70;99.90
36800;DHT22;22752;51.960;5.886;2023-12-07T01:06:19;-0.70;99.90
36800;DHT22;22752;51.960;5.886;2023-12-07T01:08:45;-0.80;99.90
36800;DHT22;22752;51.960;5.886;2023-12-07T01:11:11;-0.80;99.90
36800;DHT22;22752;51.960;5.886;2023-12-07T01:13:36;-0.80;99.90
36800;DHT22;22752;51.960;5.886;2023-12-07T01:16:02;-0.90;99.90
36800;DHT22;22752;51.960;5.886;2023-12-07T01:18:28;-0.90;99.90
36800;DHT22;22752;51.960;5.886;2023-12-07T01:20:53;-0.90;99.90
36800;DHT22;22752;51.960;5.886;2023-12-07T01:23:19;-0.90;99.90
36800;DHT22;22752;51.960;5.886;2023-12-07T01:25:44;-0.90;99.90
36800;DHT22;22752;51.960;5.886;2023-12-07T01:28:10;-0.90;99.90
36800;DHT22;22752;51.960;5.886;2023-12-07T01:30:36;-1.00;99.90
36800;DHT22;22752;51.960;5.886;2023-12-07T01:33:02;-1.00;99.90
36800;DHT22;22752;51.960;5.886;2023-12-07T01:35:27;-1.00;99.90
36800;DHT22;22752;51.960;5.886;2023-12-07T01:37:54;-1.00;99.90
36800;DHT22;22752;51.960;5.886;2023-12-07T01:40:19;-1.00;99.90
36800;DHT22;22752;51.960;5.886;2023-12-07T01:42:54;-1.00;99.90
36800;DHT22;22752;51.960;5.886;2023-12-07T01:45:20;-1.00;99.90
36800;DHT22;22752;51.960;5.886;2023-12-07T01:47:47;-1.00;99.90
36800;DHT22;22752;51.960;5.886;2023-12-07T01:50:15;-0.90;99.90
36800;DHT22;22752;51.960;5.886;2023-12-07T01:52:44;-0.80;99.90
36800;DHT22;22752;51.960;5.886;2023-12-07T01:55:12;-0.70;99.90
36800;DHT22;22752;51.960;5.886;2023-12-07T01:57:38;-0.70;99.90
36800;DHT22;22752;51.960;5.886;2023-12-07T02:00:04;-0.60;99.90
36800;DHT22;22752;51.960;5.886;2023-12-07T02:02:32;-0.50;99.90
36800;DHT22;22752;51.960;5.886;2023-12-07T02:04:58;-0.50;99.90
36800;DHT22;22752;51.960;5.886;2023-12-07T02:07:23;-0.40;99.90
36800;DHT22;22752;51.960;5.886;2023-12-07T02:09:49;-0.40;99.90
36800;DHT22;22752;51.960;5.886;2023-12-07T02:12:15;-0.30;99.90
36800;DHT22;22752;51.960;5.886;2023-12-07T02:14:41;-0.30;99.90
36800;DHT22;22752;51.960;5.886;2023-12-07T02:17:16;-0.30;99.90
36800;DHT22;22752;51.960;5.886;2023-12-07T02:22:26;-0.20;99.90
36800;DHT22;22752;51.960;5.886;2023-12-07T02:25:09;-0.10;99.90
36800;DHT22;22752;51.960;5.886;2023-12-07T02:27:39;-0.10;99.90
36800;DHT22;22752;51.960;5.886;2023-12-07T02:30:06;-0.10;99.90
36800;DHT22;22752;51.960;5.886;2023-12-07T02:32:32;-0.10;99.90
36800;DHT22;22752;51.960;5.886;2023-12-07T02:34:58;-0.10;99.90
36800;DHT22;22752;51.960;5.886;2023-12-07T02:37:27;-0.10;99.90
36800;DHT22;22752;51.960;5.886;2023-12-07T02:39:56;-0.20;99.90
36800;DHT22;22752;51.960;5.886;2023-12-07T02:42:22;-0.20;99.90
36800;DHT22;22752;51.960;5.886;2023-12-07T02:44:51;-0.20;99.90
36800;DHT22;22752;51.960;5.886;2023-12-07T02:47:17;-0.20;99.90
36800;DHT22;22752;51.960;5.886;2023-12-07T02:49:43;-0.10;99.90
36800;DHT22;22752;51.960;5.886;2023-12-07T02:52:08;-0.10;99.90
36800;DHT22;22752;51.960;5.886;2023-12-07T02:54:34;-0.10;99.90
36800;DHT22;22752;51.960;5.886;2023-12-07T02:56:59;-0.10;99.90
36800;DHT22;22752;51.960;5.886;2023-12-07T02:59:25;-0.10;99.90
36800;DHT22;22752;51.960;5.886;2023-12-07T03:01:51;-0.10;99.90
36800;DHT22;22752;51.960;5.886;2023-12-07T03:04:16;-0.10;99.90
36800;DHT22;22752;51.960;5.886;2023-12-07T03:06:42;-0.10;99.90
36800;DHT22;22752;51.960;5.886;2023-12-07T03:09:07;-0.20;99.90
36800;DHT22;22752;51.960;5.886;2023-12-07T03:11:33;-0.10;99.90
36800;DHT22;22752;51.960;5.886;2023-12-07T03:13:59;-0.10;99.90
36800;DHT22;22752;51.960;5.886;2023-12-07T03:16:24;-0.10;99.90
36800;DHT22;22752;51.960;5.886;2023-12-07T03:18:50;-0.10;99.90
36800;DHT22;22752;51.960;5.886;2023-12-07T03:21:16;0.00;99.90
36800;DHT22;22752;51.960;5.886;2023-12-07T03:23:42;0.00;99.90
36800;DHT22;22752;51.960;5.886;2023-12-07T03:26:07;0.00;99.90
36800;DHT22;22752;51.960;5.886;2023-12-07T03:28:33;0.10;99.90
36800;DHT22;22752;51.960;5.886;2023-12-07T03:30:59;0.10;99.90
36800;DHT22;22752;51.960;5.886;2023-12-07T03:33:24;0.20;99.90
36800;DHT22;22752;51.960;5.886;2023-12-07T03:35:50;0.20;99.90
36800;DHT22;22752;51.960;5.886;2023-12-07T03:38:15;0.30;99.90
36800;DHT22;22752;51.960;5.886;2023-12-07T03:40:41;0.40;99.90
36800;DHT22;22752;51.960;5.886;2023-12-07T03:43:07;0.30;99.90
36800;DHT22;22752;51.960;5.886;2023-12-07T03:45:32;0.40;99.90
36800;DHT22;22752;51.960;5.886;2023-12-07T03:47:58;0.40;99.90
36800;DHT22;22752;51.960;5.886;2023-12-07T03:50:24;0.30;99.90
36800;DHT22;22752;51.960;5.886;2023-12-07T03:52:49;0.30;99.90
36800;DHT22;22752;51.960;5.886;2023-12-07T03:55:15;0.30;99.90
36800;DHT22;22752;51.960;5.886;2023-12-07T03:57:40;0.30;99.90
36800;DHT22;22752;51.960;5.886;2023-12-07T04:00:07;0.30;99.90
36800;DHT22;22752;51.960;5.886;2023-12-07T04:02:35;0.30;99.90
36800;DHT22;22752;51.960;5.886;2023-12-07T04:05:00;0.30;99.90
36800;DHT22;22752;51.960;5.886;2023-12-07T04:07:27;0.30;99.90
36800;DHT22;22752;51.960;5.886;2023-12-07T04:09:54;0.30;99.90
36800;DHT22;22752;51.960;5.886;2023-12-07T04:12:19;0.30;99.90
36800;DHT22;22752;51.960;5.886;2023-12-07T04:14:45;0.20;99.90
36800;DHT22;22752;51.960;5.886;2023-12-07T04:17:11;0.20;99.90
36800;DHT22;22752;51.960;5.886;2023-12-07T04:19:36;0.20;99.90
36800;DHT22;22752;51.960;5.886;2023-12-07T04:22:02;0.10;99.90
36800;DHT22;22752;51.960;5.886;2023-12-07T04:24:27;0.10;99.90
36800;DHT22;22752;51.960;5.886;2023-12-07T04:26:54;0.00;99.90
36800;DHT22;22752;51.960;5.886;2023-12-07T04:29:20;0.10;99.90
36800;DHT22;22752;51.960;5.886;2023-12-07T04:31:45;0.10;99.90
36800;DHT22;22752;51.960;5.886;2023-12-07T04:34:11;0.00;99.90
36800;DHT22;22752;51.960;5.886;2023-12-07T04:36:36;0.00;99.90
36800;DHT22;22752;51.960;5.886;2023-12-07T04:39:02;0.10;99.90
36800;DHT22;22752;51.960;5.886;2023-12-07T04:41:28;0.20;99.90
36800;DHT22;22752;51.960;5.886;2023-12-07T04:43:54;0.30;99.90
36800;DHT22;22752;51.960;5.886;2023-12-07T04:46:20;0.30;99.90
36800;DHT22;22752;51.960;5.886;2023-12-07T04:48:45;0.40;99.90
36800;DHT22;22752;51.960;5.886;2023-12-07T04:51:11;0.50;99.90
36800;DHT22;22752;51.960;5.886;2023-12-07T04:53:37;0.60;99.90
36800;DHT22;22752;51.960;5.886;2023-12-07T04:56:02;0.70;99.90
36800;DHT22;22752;51.960;5.886;2023-12-07T04:58:28;0.70;99.90
36800;DHT22;22752;51.960;5.886;2023-12-07T05:00:54;0.80;99.90
36800;DHT22;22752;51.960;5.886;2023-12-07T05:03:20;0.90;99.90
36800;DHT22;22752;51.960;5.886;2023-12-07T05:05:46;0.80;99.90
36800;DHT22;22752;51.960;5.886;2023-12-07T05:08:13;0.90;99.90
36800;DHT22;22752;51.960;5.886;2023-12-07T05:10:39;0.90;99.90
36800;DHT22;22752;51.960;5.886;2023-12-07T05:13:04;0.90;99.90
36800;DHT22;22752;51.960;5.886;2023-12-07T05:15:30;0.90;99.90
36800;DHT22;22752;51.960;5.886;2023-12-07T05:17:55;1.00;99.90
36800;DHT22;22752;51.960;5.886;2023-12-07T05:20:21;1.00;99.90
36800;DHT22;22752;51.960;5.886;2023-12-07T05:22:49;1.00;99.90
36800;DHT22;22752;51.960;5.886;2023-12-07T05:25:15;1.00;99.90
36800;DHT22;22752;51.960;5.886;2023-12-07T05:27:41;1.00;99.90
36800;DHT22;22752;51.960;5.886;2023-12-07T05:30:07;1.00;99.90
36800;DHT22;22752;51.960;5.886;2023-12-07T05:32:33;1.00;99.90
36800;DHT22;22752;51.960;5.886;2023-12-07T05:34:58;1.00;99.90
36800;DHT22;22752;51.960;5.886;2023-12-07T05:37:24;1.00;99.90
36800;DHT22;22752;51.960;5.886;2023-12-07T05:39:50;1.00;99.90
36800;DHT22;22752;51.960;5.886;2023-12-07T05:42:15;1.10;99.90
36800;DHT22;22752;51.960;5.886;2023-12-07T05:44:41;1.10;99.90
36800;DHT22;22752;51.960;5.886;2023-12-07T05:47:07;1.10;99.90
36800;DHT22;22752;51.960;5.886;2023-12-07T05:49:33;1.10;99.90
36800;DHT22;22752;51.960;5.886;2023-12-07T05:51:59;1.10;99.90
36800;DHT22;22752;51.960;5.886;2023-12-07T05:54:25;1.10;99.90
36800;DHT22;22752;51.960;5.886;2023-12-07T05:56:51;1.20;99.90
36800;DHT22;22752;51.960;5.886;2023-12-07T05:59:17;1.10;99.90
36800;DHT22;22752;51.960;5.886;2023-12-07T06:01:42;1.10;99.90
36800;DHT22;22752;51.960;5.886;2023-12-07T06:04:11;1.00;99.90
36800;DHT22;22752;51.960;5.886;2023-12-07T06:06:38;1.00;99.90
36800;DHT22;22752;51.960;5.886;2023-12-07T06:09:04;1.00;99.90
36800;DHT22;22752;51.960;5.886;2023-12-07T06:11:31;1.00;99.90
36800;DHT22;22752;51.960;5.886;2023-12-07T06:13:57;1.00;99.90
36800;DHT22;22752;51.960;5.886;2023-12-07T06:16:24;1.00;99.90
36800;DHT22;22752;51.960;5.886;2023-12-07T06:18:51;1.00;99.90
36800;DHT22;22752;51.960;5.886;2023-12-07T06:21:16;1.00;99.90
36800;DHT22;22752;51.960;5.886;2023-12-07T06:23:42;1.00;99.90
36800;DHT22;22752;51.960;5.886;2023-12-07T06:26:07;1.00;99.90
36800;DHT22;22752;51.960;5.886;2023-12-07T06:28:33;0.90;99.90
36800;DHT22;22752;51.960;5.886;2023-12-07T06:31:05;1.00;99.90
36800;DHT22;22752;51.960;5.886;2023-12-07T06:33:31;1.00;99.90
36800;DHT22;22752;51.960;5.886;2023-12-07T06:35:57;0.90;99.90
36800;DHT22;22752;51.960;5.886;2023-12-07T06:38:22;0.90;99.90
36800;DHT22;22752;51.960;5.886;2023-12-07T06:40:48;0.90;99.90
36800;DHT22;22752;51.960;5.886;2023-12-07T06:43:14;0.90;99.90
36800;DHT22;22752;51.960;5.886;2023-12-07T06:45:40;0.90;99.90
36800;DHT22;22752;51.960;5.886;2023-12-07T06:48:05;0.90;99.90
36800;DHT22;22752;51.960;5.886;2023-12-07T06:50:31;0.90;99.90
36800;DHT22;22752;51.960;5.886;2023-12-07T06:52:57;0.90;99.90
36800;DHT22;22752;51.960;5.886;2023-12-07T06:55:22;0.90;99.90
36800;DHT22;22752;51.960;5.886;2023-12-07T06:57:48;0.90;99.90
36800;DHT22;22752;51.960;5.886;2023-12-07T07:00:14;1.00;99.90
36800;DHT22;22752;51.960;5.886;2023-12-07T07:02:40;1.00;99.90
36800;DHT22;22752;51.960;5.886;2023-12-07T07:05:06;1.00;99.90
36800;DHT22;22752;51.960;5.886;2023-12-07T07:07:31;1.00;99.90
36800;DHT22;22752;51.960;5.886;2023-12-07T07:09:57;1.00;99.90
36800;DHT22;22752;51.960;5.886;2023-12-07T07:12:23;1.10;99.90
36800;DHT22;22752;51.960;5.886;2023-12-07T07:14:49;1.00;99.90
36800;DHT22;22752;51.960;5.886;2023-12-07T07:17:14;1.00;99.90
36800;DHT22;22752;51.960;5.886;2023-12-07T07:19:41;1.00;99.90
36800;DHT22;22752;51.960;5.886;2023-12-07T07:22:07;1.00;99.90
36800;DHT22;22752;51.960;5.886;2023-12-07T07:24:34;1.00;99.90
36800;DHT22;22752;51.960;5.886;2023-12-07T07:27:00;0.90;99.90
36800;DHT22;22752;51.960;5.886;2023-12-07T07:29:26;1.00;99.90
36800;DHT22;22752;51.960;5.886;2023-12-07T07:31:53;1.00;99.90
36800;DHT22;22752;51.960;5.886;2023-12-07T07:34:18;1.00;99.90
36800;DHT22;22752;51.960;5.886;2023-12-07T07:36:44;1.00;99.90
36800;DHT22;22752;51.960;5.886;2023-12-07T07:39:10;1.00;99.90
36800;DHT22;22752;51.960;5.886;2023-12-07T07:41:36;1.00;99.90
36800;DHT22;22752;51.960;5.886;2023-12-07T07:44:02;1.00;99.90
36800;DHT22;22752;51.960;5.886;2023-12-07T07:46:28;1.00;99.90
36800;DHT22;22752;51.960;5.886;2023-12-07T07:48:53;1.00;99.90
36800;DHT22;22752;51.960;5.886;2023-12-07T07:51:19;1.00;99.90
36800;DHT22;22752;51.960;5.886;2023-12-07T07:53:54;1.10;99.90
36800;DHT22;22752;51.960;5.886;2023-12-07T07:56:19;1.00;99.90
36800;DHT22;22752;51.960;5.886;2023-12-07T07:58:45;1.00;99.90
36800;DHT22;22752;51.960;5.886;2023-12-07T08:01:11;1.00;99.90
36800;DHT22;22752;51.960;5.886;2023-12-07T08:03:37;1.00;99.90
36800;DHT22;22752;51.960;5.886;2023-12-07T08:06:02;1.10;99.90
36800;DHT22;22752;51.960;5.886;2023-12-07T08:08:28;1.10;99.90
36800;DHT22;22752;51.960;5.886;2023-12-07T08:10:54;1.10;99.90
36800;DHT22;22752;51.960;5.886;2023-12-07T08:13:20;1.10;99.90
36800;DHT22;22752;51.960;5.886;2023-12-07T08:15:45;1.00;99.90
36800;DHT22;22752;51.960;5.886;2023-12-07T08:18:11;1.10;99.90
36800;DHT22;22752;51.960;5.886;2023-12-07T08:20:37;1.10;99.90
36800;DHT22;22752;51.960;5.886;2023-12-07T08:23:03;1.10;99.90
36800;DHT22;22752;51.960;5.886;2023-12-07T08:25:28;1.20;99.90
36800;DHT22;22752;51.960;5.886;2023-12-07T08:27:54;1.20;99.90
36800;DHT22;22752;51.960;5.886;2023-12-07T08:30:20;1.20;99.90
36800;DHT22;22752;51.960;5.886;2023-12-07T08:32:45;1.10;99.90
36800;DHT22;22752;51.960;5.886;2023-12-07T08:35:11;1.10;99.90
36800;DHT22;22752;51.960;5.886;2023-12-07T08:37:37;1.10;99.90
36800;DHT22;22752;51.960;5.886;2023-12-07T08:40:04;1.10;99.90
36800;DHT22;22752;51.960;5.886;2023-12-07T08:42:30;1.10;99.90
36800;DHT22;22752;51.960;5.886;2023-12-07T08:44:57;1.10;99.90
36800;DHT22;22752;51.960;5.886;2023-12-07T08:47:23;1.10;99.90
36800;DHT22;22752;51.960;5.886;2023-12-07T08:49:48;1.10;99.90
36800;DHT22;22752;51.960;5.886;2023-12-07T08:52:16;1.10;99.90
36800;DHT22;22752;51.960;5.886;2023-12-07T08:54:43;1.10;99.90
36800;DHT22;22752;51.960;5.886;2023-12-07T08:57:10;1.10;99.90
36800;DHT22;22752;51.960;5.886;2023-12-07T08:59:35;1.10;99.90
36800;DHT22;22752;51.960;5.886;2023-12-07T09:02:01;1.10;99.90
36800;DHT22;22752;51.960;5.886;2023-12-07T09:04:27;1.00;99.90
36800;DHT22;22752;51.960;5.886;2023-12-07T09:06:52;1.10;99.90
36800;DHT22;22752;51.960;5.886;2023-12-07T09:09:19;1.00;99.90
36800;DHT22;22752;51.960;5.886;2023-12-07T09:11:45;1.10;99.90
36800;DHT22;22752;51.960;5.886;2023-12-07T09:14:10;1.10;99.90
36800;DHT22;22752;51.960;5.886;2023-12-07T09:16:43;1.20;99.90
36800;DHT22;22752;51.960;5.886;2023-12-07T09:19:10;1.30;99.90
36800;DHT22;22752;51.960;5.886;2023-12-07T09:21:35;1.30;99.90
36800;DHT22;22752;51.960;5.886;2023-12-07T09:24:01;1.30;99.90
36800;DHT22;22752;51.960;5.886;2023-12-07T09:26:27;1.30;99.90
36800;DHT22;22752;51.960;5.886;2023-12-07T09:28:53;1.30;99.90
36800;DHT22;22752;51.960;5.886;2023-12-07T09:31:18;1.30;99.90
36800;DHT22;22752;51.960;5.886;2023-12-07T09:33:44;1.30;99.90
36800;DHT22;22752;51.960;5.886;2023-12-07T09:36:10;1.30;99.90
36800;DHT22;22752;51.960;5.886;2023-12-07T09:38:37;1.30;99.90
36800;DHT22;22752;51.960;5.886;2023-12-07T09:41:03;1.30;99.90
36800;DHT22;22752;51.960;5.886;2023-12-07T09:43:29;1.40;99.90
36800;DHT22;22752;51.960;5.886;2023-12-07T09:45:56;1.40;99.90
36800;DHT22;22752;51.960;5.886;2023-12-07T09:48:23;1.40;99.90
36800;DHT22;22752;51.960;5.886;2023-12-07T09:50:49;1.40;99.90
36800;DHT22;22752;51.960;5.886;2023-12-07T09:53:15;1.40;99.90
36800;DHT22;22752;51.960;5.886;2023-12-07T09:55:40;1.40;99.90
36800;DHT22;22752;51.960;5.886;2023-12-07T09:58:06;1.40;99.90
36800;DHT22;22752;51.960;5.886;2023-12-07T10:00:32;1.40;99.90
36800;DHT22;22752;51.960;5.886;2023-12-07T10:02:58;1.40;99.90
36800;DHT22;22752;51.960;5.886;2023-12-07T10:05:24;1.40;99.90
36800;DHT22;22752;51.960;5.886;2023-12-07T10:07:50;1.40;99.90
36800;DHT22;22752;51.960;5.886;2023-12-07T10:10:17;1.50;99.90
36800;DHT22;22752;51.960;5.886;2023-12-07T10:12:53;1.50;99.90
36800;DHT22;22752;51.960;5.886;2023-12-07T10:15:20;1.50;99.90
36800;DHT22;22752;51.960;5.886;2023-12-07T10:17:56;1.60;99.90
36800;DHT22;22752;51.960;5.886;2023-12-07T10:20:25;1.60;99.90
36800;DHT22;22752;51.960;5.886;2023-12-07T10:23:07;1.70;99.90
36800;DHT22;22752;51.960;5.886;2023-12-07T10:25:41;1.70;99.90
36800;DHT22;22752;51.960;5.886;2023-12-07T10:28:08;1.80;99.90
36800;DHT22;22752;51.960;5.886;2023-12-07T10:30:37;1.80;99.90
36800;DHT22;22752;51.960;5.886;2023-12-07T10:33:03;1.80;99.90
36800;DHT22;22752;51.960;5.886;2023-12-07T10:35:29;1.80;99.90
36800;DHT22;22752;51.960;5.886;2023-12-07T10:37:55;1.80;99.90
36800;DHT22;22752;51.960;5.886;2023-12-07T10:40:21;1.90;99.90
36800;DHT22;22752;51.960;5.886;2023-12-07T10:42:54;1.90;99.90
36800;DHT22;22752;51.960;5.886;2023-12-07T10:45:22;2.00;99.90
36800;DHT22;22752;51.960;5.886;2023-12-07T10:47:51;2.00;99.90
36800;DHT22;22752;51.960;5.886;2023-12-07T10:50:23;2.00;99.90
36800;DHT22;22752;51.960;5.886;2023-12-07T10:52:54;2.10;99.90
36800;DHT22;22752;51.960;5.886;2023-12-07T10:55:28;2.10;99.90
36800;DHT22;22752;51.960;5.886;2023-12-07T10:57:55;2.10;99.90
36800;DHT22;22752;51.960;5.886;2023-12-07T11:00:24;2.10;99.90
36800;DHT22;22752;51.960;5.886;2023-12-07T11:02:53;2.00;99.90
36800;DHT22;22752;51.960;5.886;2023-12-07T11:05:19;2.00;99.90
36800;DHT22;22752;51.960;5.886;2023-12-07T11:10:34;2.00;99.90
36800;DHT22;22752;51.960;5.886;2023-12-07T11:13:24;2.10;99.90
36800;DHT22;22752;51.960;5.886;2023-12-07T11:15:52;2.10;99.90
36800;DHT22;22752;51.960;5.886;2023-12-07T11:18:18;2.20;99.90
36800;DHT22;22752;51.960;5.886;2023-12-07T11:20:45;2.20;99.90
36800;DHT22;22752;51.960;5.886;2023-12-07T11:23:16;2.30;99.90
36800;DHT22;22752;51.960;5.886;2023-12-07T11:25:45;2.40;99.90
36800;DHT22;22752;51.960;5.886;2023-12-07T11:28:12;2.50;99.90
36800;DHT22;22752;51.960;5.886;2023-12-07T11:30:38;2.50;99.90
36800;DHT22;22752;51.960;5.886;2023-12-07T11:33:06;2.60;99.90
36800;DHT22;22752;51.960;5.886;2023-12-07T11:35:33;2.60;99.90
36800;DHT22;22752;51.960;5.886;2023-12-07T11:38:09;2.70;99.90
36800;DHT22;22752;51.960;5.886;2023-12-07T11:40:41;2.80;99.90
36800;DHT22;22752;51.960;5.886;2023-12-07T11:43:07;2.90;99.90
36800;DHT22;22752;51.960;5.886;2023-12-07T11:45:41;2.90;99.90
36800;DHT22;22752;51.960;5.886;2023-12-07T11:48:12;3.00;99.90
36800;DHT22;22752;51.960;5.886;2023-12-07T11:50:57;3.10;99.90
36800;DHT22;22752;51.960;5.886;2023-12-07T11:53:25;3.10;99.90
36800;DHT22;22752;51.960;5.886;2023-12-07T11:55:51;3.10;99.90
36800;DHT22;22752;51.960;5.886;2023-12-07T11:58:17;3.20;99.90
36800;DHT22;22752;51.960;5.886;2023-12-07T12:00:44;3.20;99.90
36800;DHT22;22752;51.960;5.886;2023-12-07T12:03:12;3.20;99.90
36800;DHT22;22752;51.960;5.886;2023-12-07T12:05:38;3.20;99.90
36800;DHT22;22752;51.960;5.886;2023-12-07T12:08:08;3.30;99.90
36800;DHT22;22752;51.960;5.886;2023-12-07T12:10:34;3.30;99.90
36800;DHT22;22752;51.960;5.886;2023-12-07T12:13:03;3.30;99.90
36800;DHT22;22752;51.960;5.886;2023-12-07T12:15:30;3.30;99.90
36800;DHT22;22752;51.960;5.886;2023-12-07T12:17:59;3.30;99.90
36800;DHT22;22752;51.960;5.886;2023-12-07T12:20:25;3.40;99.90
36800;DHT22;22752;51.960;5.886;2023-12-07T12:22:51;3.30;99.90
36800;DHT22;22752;51.960;5.886;2023-12-07T12:25:30;3.30;99.90
36800;DHT22;22752;51.960;5.886;2023-12-07T12:27:57;3.30;99.90
36800;DHT22;22752;51.960;5.886;2023-12-07T12:30:24;3.20;99.90
36800;DHT22;22752;51.960;5.886;2023-12-07T12:32:50;3.30;99.90
36800;DHT22;22752;51.960;5.886;2023-12-07T12:35:19;3.20;99.90
36800;DHT22;22752;51.960;5.886;2023-12-07T12:37:46;3.20;99.90
36800;DHT22;22752;51.960;5.886;2023-12-07T12:40:19;3.10;99.90
36800;DHT22;22752;51.960;5.886;2023-12-07T12:42:53;3.10;99.90
36800;DHT22;22752;51.960;5.886;2023-12-07T12:45:19;3.20;99.90
36800;DHT22;22752;51.960;5.886;2023-12-07T12:47:46;3.10;99.90
36800;DHT22;22752;51.960;5.886;2023-12-07T12:50:38;3.10;99.90
36800;DHT22;22752;51.960;5.886;2023-12-07T12:53:08;3.10;99.90
36800;DHT22;22752;51.960;5.886;2023-12-07T12:55:37;3.10;99.90
36800;DHT22;22752;51.960;5.886;2023-12-07T12:58:03;3.00;99.90
36800;DHT22;22752;51.960;5.886;2023-12-07T13:00:30;3.00;99.90
36800;DHT22;22752;51.960;5.886;2023-12-07T13:02:58;3.00;99.90
36800;DHT22;22752;51.960;5.886;2023-12-07T13:05:25;3.00;99.90
36800;DHT22;22752;51.960;5.886;2023-12-07T13:07:51;3.00;99.90
36800;DHT22;22752;51.960;5.886;2023-12-07T13:10:17;3.00;99.90
36800;DHT22;22752;51.960;5.886;2023-12-07T13:12:42;3.00;99.90
36800;DHT22;22752;51.960;5.886;2023-12-07T13:15:09;3.10;99.90
36800;DHT22;22752;51.960;5.886;2023-12-07T13:17:35;3.20;99.90
36800;DHT22;22752;51.960;5.886;2023-12-07T13:20:01;3.20;99.90
36800;DHT22;22752;51.960;5.886;2023-12-07T13:22:27;3.20;99.90
36800;DHT22;22752;51.960;5.886;2023-12-07T13:24:53;3.20;99.90
36800;DHT22;22752;51.960;5.886;2023-12-07T13:27:19;3.20;99.90
36800;DHT22;22752;51.960;5.886;2023-12-07T13:29:45;3.20;99.90
36800;DHT22;22752;51.960;5.886;2023-12-07T13:32:10;3.30;99.90
36800;DHT22;22752;51.960;5.886;2023-12-07T13:34:37;3.30;99.90
36800;DHT22;22752;51.960;5.886;2023-12-07T13:37:03;3.30;99.90
36800;DHT22;22752;51.960;5.886;2023-12-07T13:39:30;3.30;99.90
36800;DHT22;22752;51.960;5.886;2023-12-07T13:41:56;3.20;99.90
36800;DHT22;22752;51.960;5.886;2023-12-07T13:44:22;3.10;99.90
36800;DHT22;22752;51.960;5.886;2023-12-07T13:46:49;3.10;99.90
36800;DHT22;22752;51.960;5.886;2023-12-07T13:49:15;3.10;99.90
36800;DHT22;22752;51.960;5.886;2023-12-07T13:51:41;3.10;99.90
36800;DHT22;22752;51.960;5.886;2023-12-07T13:54:07;3.10;99.90
36800;DHT22;22752;51.960;5.886;2023-12-07T13:56:34;3.00;99.90
36800;DHT22;22752;51.960;5.886;2023-12-07T13:59:00;3.00;99.90
36800;DHT22;22752;51.960;5.886;2023-12-07T14:01:26;3.00;99.90
36800;DHT22;22752;51.960;5.886;2023-12-07T14:03:52;2.90;99.90
36800;DHT22;22752;51.960;5.886;2023-12-07T14:06:24;2.80;99.90
36800;DHT22;22752;51.960;5.886;2023-12-07T14:08:50;2.70;99.90
36800;DHT22;22752;51.960;5.886;2023-12-07T14:11:17;2.70;99.90
36800;DHT22;22752;51.960;5.886;2023-12-07T14:13:43;2.60;99.90
36800;DHT22;22752;51.960;5.886;2023-12-07T14:16:12;2.70;99.90
36800;DHT22;22752;51.960;5.886;2023-12-07T14:18:37;2.70;99.90
36800;DHT22;22752;51.960;5.886;2023-12-07T14:21:03;2.60;99.90
36800;DHT22;22752;51.960;5.886;2023-12-07T14:23:29;2.60;99.90
36800;DHT22;22752;51.960;5.886;2023-12-07T14:25:54;2.60;99.90
36800;DHT22;22752;51.960;5.886;2023-12-07T14:28:24;2.60;99.90
36800;DHT22;22752;51.960;5.886;2023-12-07T14:30:49;2.60;99.90
36800;DHT22;22752;51.960;5.886;2023-12-07T14:33:15;2.70;99.90
36800;DHT22;22752;51.960;5.886;2023-12-07T14:35:41;2.70;99.90
36800;DHT22;22752;51.960;5.886;2023-12-07T14:38:06;2.70;99.90
36800;DHT22;22752;51.960;5.886;2023-12-07T14:40:32;2.60;99.90
36800;DHT22;22752;51.960;5.886;2023-12-07T14:42:59;2.60;99.90
36800;DHT22;22752;51.960;5.886;2023-12-07T14:45:25;2.60;99.90
36800;DHT22;22752;51.960;5.886;2023-12-07T14:47:51;2.50;99.90
36800;DHT22;22752;51.960;5.886;2023-12-07T14:50:16;2.50;99.90
36800;DHT22;22752;51.960;5.886;2023-12-07T14:52:42;2.50;99.90
36800;DHT22;22752;51.960;5.886;2023-12-07T14:55:08;2.50;99.90
36800;DHT22;22752;51.960;5.886;2023-12-07T14:57:34;2.50;99.90
36800;DHT22;22752;51.960;5.886;2023-12-07T15:00:00;2.50;99.90
36800;DHT22;22752;51.960;5.886;2023-12-07T15:02:26;2.40;99.90
36800;DHT22;22752;51.960;5.886;2023-12-07T15:04:51;2.40;99.90
36800;DHT22;22752;51.960;5.886;2023-12-07T15:07:17;2.40;99.90
36800;DHT22;22752;51.960;5.886;2023-12-07T15:09:42;2.40;99.90
36800;DHT22;22752;51.960;5.886;2023-12-07T15:12:08;2.30;99.90
36800;DHT22;22752;51.960;5.886;2023-12-07T15:14:34;2.30;99.90
36800;DHT22;22752;51.960;5.886;2023-12-07T15:16:59;2.30;99.90
36800;DHT22;22752;51.960;5.886;2023-12-07T15:19:25;2.30;99.90
36800;DHT22;22752;51.960;5.886;2023-12-07T15:21:51;2.30;99.90
36800;DHT22;22752;51.960;5.886;2023-12-07T15:24:17;2.30;99.90
36800;DHT22;22752;51.960;5.886;2023-12-07T15:26:43;2.30;99.90
36800;DHT22;22752;51.960;5.886;2023-12-07T15:29:09;2.20;99.90
36800;DHT22;22752;51.960;5.886;2023-12-07T15:31:35;2.30;99.90
36800;DHT22;22752;51.960;5.886;2023-12-07T15:34:00;2.20;99.90
36800;DHT22;22752;51.960;5.886;2023-12-07T15:36:26;2.20;99.90
36800;DHT22;22752;51.960;5.886;2023-12-07T15:38:52;2.20;99.90
36800;DHT22;22752;51.960;5.886;2023-12-07T15:41:18;2.20;99.90
36800;DHT22;22752;51.960;5.886;2023-12-07T15:43:44;2.10;99.90